createdAt,value
2019-01-21T00:00:08.199Z,218.37
2019-01-21T00:01:08.342Z,218.37
2019-01-21T00:02:08.534Z,218.43
2019-01-21T00:03:14.414Z,218.44
2019-01-21T00:04:09.979Z,218.41
2019-01-21T00:05:09.061Z,218.46
2019-01-21T00:06:09.167Z,218.43
2019-01-21T00:07:09.318Z,218.46
2019-01-21T00:08:09.492Z,218.48
2019-01-21T00:09:09.682Z,218.46
2019-01-21T00:10:09.826Z,218.40
2019-01-21T00:11:10.012Z,218.44
2019-01-21T00:12:10.205Z,218.44
2019-01-21T00:13:10.328Z,218.35
2019-01-21T00:14:10.488Z,218.35
2019-01-21T00:15:10.641Z,218.41
2019-01-21T00:16:10.825Z,218.29
2019-01-21T00:17:10.959Z,218.29
2019-01-21T00:18:11.143Z,218.32
2019-01-21T00:19:11.534Z,218.29
2019-01-21T00:20:11.496Z,218.29
2019-01-21T00:21:11.614Z,218.24
2019-01-21T00:22:11.772Z,218.22
2019-01-21T00:23:11.953Z,218.16
2019-01-21T00:24:12.123Z,218.20
2019-01-21T00:25:12.263Z,218.20
2019-01-21T00:26:12.421Z,218.24
2019-01-21T00:27:12.580Z,218.20
2019-01-21T00:28:12.792Z,218.17
2019-01-21T00:29:13.029Z,218.20
2019-01-21T00:30:13.075Z,218.22
2019-01-21T00:31:13.240Z,218.14
2019-01-21T00:32:13.400Z,218.19
2019-01-21T00:33:13.579Z,218.16
2019-01-21T00:34:13.732Z,218.12
2019-01-21T00:35:13.886Z,218.11
2019-01-21T00:36:14.062Z,218.23
2019-01-21T00:37:14.307Z,218.14
2019-01-21T00:38:14.396Z,218.07
2019-01-21T00:39:14.533Z,218.10
2019-01-21T00:40:14.700Z,218.16
2019-01-21T00:41:14.876Z,218.08
2019-01-21T00:42:15.009Z,218.11
2019-01-21T00:43:15.234Z,218.08
2019-01-21T00:44:15.368Z,218.10
2019-01-21T00:45:15.588Z,218.19
2019-01-21T00:46:15.669Z,218.19
2019-01-21T00:47:15.819Z,218.10
2019-01-21T00:48:15.987Z,218.10
2019-01-21T00:49:16.173Z,218.11
2019-01-21T00:50:16.705Z,218.14
2019-01-21T00:51:16.484Z,218.16
2019-01-21T00:52:16.627Z,218.14
2019-01-21T00:53:16.838Z,218.19
2019-01-21T00:54:16.976Z,218.15
2019-01-21T00:55:17.098Z,218.17
2019-01-21T00:56:17.274Z,218.17
2019-01-21T00:57:17.421Z,218.20
2019-01-21T00:58:17.603Z,218.27
2019-01-21T00:59:17.779Z,218.25
2019-01-21T01:00:17.899Z,218.29
2019-01-21T01:01:18.114Z,218.29
2019-01-21T01:02:18.317Z,218.32
2019-01-21T01:03:18.406Z,218.37
2019-01-21T01:04:18.610Z,218.32
2019-01-21T01:05:18.702Z,218.34
2019-01-21T01:06:18.894Z,270.03
2019-01-21T01:07:19.049Z,268.36
2019-01-21T01:08:19.200Z,269.66
2019-01-21T01:09:19.404Z,268.96
2019-01-21T01:10:19.650Z,270.00
2019-01-21T01:11:19.718Z,270.04
2019-01-21T01:12:19.855Z,269.87
2019-01-21T01:13:20.014Z,270.43
2019-01-21T01:14:20.195Z,269.64
2019-01-21T01:15:20.334Z,268.59
2019-01-21T01:16:20.518Z,268.94
2019-01-21T01:17:20.683Z,269.59
2019-01-21T01:18:20.949Z,269.52
2019-01-21T01:19:21.009Z,269.78
2019-01-21T01:20:21.197Z,268.29
2019-01-21T01:21:21.339Z,268.77
2019-01-21T01:22:21.496Z,268.66
2019-01-21T01:23:21.655Z,269.38
2019-01-21T01:24:21.848Z,270.04
2019-01-21T01:25:22.006Z,268.73
2019-01-21T01:26:22.223Z,269.51
2019-01-21T01:27:22.270Z,269.13
2019-01-21T01:28:22.455Z,268.68
2019-01-21T01:29:22.636Z,268.88
2019-01-21T01:30:22.813Z,269.34
2019-01-21T01:31:22.979Z,268.54
2019-01-21T01:32:23.118Z,268.93
2019-01-21T01:33:23.249Z,269.09
2019-01-21T01:34:23.465Z,268.68
2019-01-21T01:35:23.587Z,269.39
2019-01-21T01:36:23.769Z,268.77
2019-01-21T01:37:23.906Z,269.11
2019-01-21T01:38:24.065Z,268.07
2019-01-21T01:39:24.252Z,268.32
2019-01-21T01:40:24.412Z,218.25
2019-01-21T01:41:24.588Z,218.31
2019-01-21T01:42:24.766Z,218.27
2019-01-21T01:43:25.014Z,218.25
2019-01-21T01:44:25.080Z,218.35
2019-01-21T01:45:25.248Z,218.33
2019-01-21T01:46:25.401Z,218.34
2019-01-21T01:47:25.540Z,218.37
2019-01-21T01:48:25.700Z,218.37
2019-01-21T01:49:25.888Z,218.32
2019-01-21T01:50:26.034Z,218.32
2019-01-21T01:51:26.381Z,218.31
2019-01-21T01:52:26.346Z,218.32
2019-01-21T01:53:26.507Z,218.29
2019-01-21T01:54:26.676Z,218.27
2019-01-21T01:55:26.844Z,218.29
2019-01-21T01:56:27.241Z,218.24
2019-01-21T01:57:27.150Z,218.23
2019-01-21T01:58:27.320Z,218.29
2019-01-21T01:59:27.545Z,218.29
2019-01-21T02:00:27.624Z,218.29
2019-01-21T02:01:27.807Z,218.22
2019-01-21T02:02:27.971Z,218.24
2019-01-21T02:03:28.157Z,218.20
2019-01-21T02:04:28.311Z,218.22
2019-01-21T02:05:28.480Z,218.27
2019-01-21T02:06:28.637Z,218.29
2019-01-21T02:07:28.836Z,218.23
2019-01-21T02:08:28.918Z,218.27
2019-01-21T02:09:29.099Z,218.27
2019-01-21T02:10:29.271Z,218.29
2019-01-21T02:11:29.430Z,218.32
2019-01-21T02:12:29.565Z,218.40
2019-01-21T02:13:29.741Z,218.39
2019-01-21T02:14:29.937Z,218.44
2019-01-21T02:15:30.137Z,218.41
2019-01-21T02:16:30.301Z,218.44
2019-01-21T02:17:30.387Z,218.50
2019-01-21T02:18:30.558Z,218.54
2019-01-21T02:19:30.770Z,218.56
2019-01-21T02:20:30.904Z,218.56
2019-01-21T02:21:31.068Z,218.49
2019-01-21T02:22:31.245Z,218.56
2019-01-21T02:23:31.398Z,218.56
2019-01-21T02:24:31.745Z,218.52
2019-01-21T02:25:31.742Z,218.54
2019-01-21T02:26:31.903Z,218.54
2019-01-21T02:27:32.086Z,218.54
2019-01-21T02:28:32.206Z,218.56
2019-01-21T02:29:32.417Z,218.46
2019-01-21T02:30:32.570Z,218.54
2019-01-21T02:31:32.723Z,218.54
2019-01-21T02:32:33.014Z,218.56
2019-01-21T02:33:33.030Z,218.51
2019-01-21T02:34:33.248Z,218.49
2019-01-21T02:35:33.389Z,218.54
2019-01-21T02:36:33.529Z,218.61
2019-01-21T02:37:33.725Z,218.52
2019-01-21T02:38:33.891Z,218.54
2019-01-21T02:39:34.056Z,218.50
2019-01-21T02:40:34.219Z,218.51
2019-01-21T02:41:34.329Z,218.54
2019-01-21T02:42:34.526Z,218.52
2019-01-21T02:43:34.723Z,218.50
2019-01-21T02:44:34.845Z,218.54
2019-01-21T02:45:34.965Z,218.54
2019-01-21T02:46:35.131Z,218.61
2019-01-21T02:47:35.322Z,218.54
2019-01-21T02:48:35.561Z,218.51
2019-01-21T02:49:35.663Z,218.59
2019-01-21T02:50:35.778Z,218.59
2019-01-21T02:51:35.942Z,218.66
2019-01-21T02:52:36.136Z,218.63
2019-01-21T02:53:36.282Z,218.63
2019-01-21T02:54:36.489Z,218.63
2019-01-21T02:55:36.594Z,218.69
2019-01-21T02:56:36.777Z,218.63
2019-01-21T02:57:37.064Z,218.68
2019-01-21T02:58:37.107Z,218.68
2019-01-21T02:59:37.276Z,218.73
2019-01-21T03:00:37.407Z,218.68
2019-01-21T03:01:37.565Z,218.71
2019-01-21T03:02:37.733Z,218.68
2019-01-21T03:03:37.904Z,218.67
2019-01-21T03:04:38.071Z,218.66
2019-01-21T03:05:38.353Z,218.63
2019-01-21T03:06:38.353Z,218.73
2019-01-21T03:07:38.548Z,218.67
2019-01-21T03:08:38.721Z,218.61
2019-01-21T03:09:38.896Z,218.58
2019-01-21T03:10:39.032Z,218.72
2019-01-21T03:11:39.196Z,218.63
2019-01-21T03:12:39.374Z,218.65
2019-01-21T03:13:39.554Z,218.58
2019-01-21T03:14:39.681Z,218.52
2019-01-21T03:15:39.826Z,218.49
2019-01-21T03:16:40.024Z,218.56
2019-01-21T03:17:40.172Z,218.54
2019-01-21T03:18:40.305Z,218.54
2019-01-21T03:19:40.476Z,218.52
2019-01-21T03:20:40.668Z,218.51
2019-01-21T03:21:40.924Z,218.51
2019-01-21T03:22:40.971Z,218.54
2019-01-21T03:23:41.125Z,218.50
2019-01-21T03:24:41.278Z,218.51
2019-01-21T03:25:41.507Z,218.52
2019-01-21T03:26:41.643Z,218.49
2019-01-21T03:27:41.821Z,218.56
2019-01-21T03:28:41.958Z,218.49
2019-01-21T03:29:42.149Z,218.54
2019-01-21T03:30:42.456Z,218.54
2019-01-21T03:31:42.472Z,218.52
2019-01-21T03:32:42.882Z,218.52
2019-01-21T03:33:42.791Z,218.51
2019-01-21T03:34:42.968Z,218.52
2019-01-21T03:35:43.161Z,218.51
2019-01-21T03:36:43.273Z,218.54
2019-01-21T03:37:43.470Z,218.51
2019-01-21T03:38:43.764Z,218.49
2019-01-21T03:39:43.768Z,218.50
2019-01-21T03:40:43.925Z,218.49
2019-01-21T03:41:44.095Z,218.49
2019-01-21T03:42:44.283Z,218.54
2019-01-21T03:43:44.422Z,218.61
2019-01-21T03:44:44.591Z,218.56
2019-01-21T03:45:44.778Z,218.54
2019-01-21T03:46:44.985Z,218.61
2019-01-21T03:47:45.134Z,218.61
2019-01-21T03:48:45.243Z,218.54
2019-01-21T03:49:45.395Z,218.61
2019-01-21T03:50:45.575Z,218.48
2019-01-21T03:51:45.728Z,218.66
2019-01-21T03:52:45.892Z,218.60
2019-01-21T03:53:46.046Z,218.67
2019-01-21T03:54:46.453Z,218.65
2019-01-21T03:55:46.362Z,218.58
2019-01-21T03:56:46.547Z,218.59
2019-01-21T03:57:46.689Z,218.63
2019-01-21T03:58:46.804Z,218.67
2019-01-21T03:59:46.983Z,218.66
2019-01-21T04:00:47.181Z,218.63
2019-01-21T04:01:47.332Z,218.69
2019-01-21T04:02:47.521Z,218.69
2019-01-21T04:03:47.661Z,218.67
2019-01-21T04:04:47.794Z,218.61
2019-01-21T04:05:47.962Z,218.63
2019-01-21T04:06:48.115Z,218.58
2019-01-21T04:07:48.306Z,218.54
2019-01-21T04:08:48.437Z,218.54
2019-01-21T04:09:48.574Z,218.63
2019-01-21T04:10:48.783Z,218.60
2019-01-21T04:11:49.051Z,218.48
2019-01-21T04:12:49.114Z,218.63
2019-01-21T04:13:49.257Z,218.56
2019-01-21T04:14:49.402Z,218.58
2019-01-21T04:15:49.593Z,218.59
2019-01-21T04:16:52.767Z,218.58
2019-01-21T04:17:49.937Z,218.61
2019-01-21T04:18:50.058Z,218.65
2019-01-21T04:19:50.311Z,218.60
2019-01-21T04:20:50.393Z,218.63
2019-01-21T04:21:50.548Z,218.68
2019-01-21T04:22:50.722Z,218.63
2019-01-21T04:23:50.870Z,218.60
2019-01-21T04:24:51.028Z,218.63
2019-01-21T04:25:51.189Z,218.61
2019-01-21T04:26:51.348Z,218.71
2019-01-21T04:27:51.580Z,218.68
2019-01-21T04:28:51.655Z,218.68
2019-01-21T04:29:51.820Z,218.71
2019-01-21T04:30:51.985Z,218.69
2019-01-21T04:31:52.126Z,218.75
2019-01-21T04:32:52.343Z,218.76
2019-01-21T04:33:52.464Z,218.80
2019-01-21T04:34:52.650Z,218.84
2019-01-21T04:35:52.862Z,218.86
2019-01-21T04:36:52.914Z,218.80
2019-01-21T04:37:53.109Z,218.86
2019-01-21T04:38:53.275Z,218.85
2019-01-21T04:39:53.506Z,218.93
2019-01-21T04:40:53.626Z,218.93
2019-01-21T04:41:53.760Z,218.89
2019-01-21T04:42:53.939Z,218.88
2019-01-21T04:43:54.104Z,218.94
2019-01-21T04:44:54.302Z,218.98
2019-01-21T04:45:54.421Z,218.95
2019-01-21T04:46:54.563Z,218.90
2019-01-21T04:47:54.709Z,218.95
2019-01-21T04:48:54.897Z,218.88
2019-01-21T04:49:55.075Z,218.89
2019-01-21T04:50:55.228Z,218.96
2019-01-21T04:51:55.373Z,218.92
2019-01-21T04:52:55.677Z,218.89
2019-01-21T04:53:55.700Z,218.93
2019-01-21T04:54:55.890Z,218.92
2019-01-21T04:55:56.049Z,218.86
2019-01-21T04:56:56.209Z,218.90
2019-01-21T04:57:56.354Z,218.96
2019-01-21T04:58:56.547Z,218.98
2019-01-21T04:59:56.701Z,218.96
2019-01-21T05:00:56.953Z,218.98
2019-01-21T05:01:56.993Z,218.93
2019-01-21T05:02:57.167Z,218.94
2019-01-21T05:03:57.339Z,218.98
2019-01-21T05:04:57.494Z,218.92
2019-01-21T05:05:57.662Z,218.92
2019-01-21T05:06:57.809Z,218.84
2019-01-21T05:07:57.970Z,218.83
2019-01-21T05:08:58.199Z,218.84
2019-01-21T05:09:58.301Z,218.83
2019-01-21T05:10:58.443Z,218.81
2019-01-21T05:11:58.830Z,218.81
2019-01-21T05:12:58.779Z,218.80
2019-01-21T05:13:58.951Z,218.72
2019-01-21T05:14:59.108Z,218.80
2019-01-21T05:15:59.263Z,218.78
2019-01-21T05:16:59.458Z,218.73
2019-01-21T05:17:59.570Z,218.72
2019-01-21T05:18:59.754Z,218.76
2019-01-21T05:19:59.920Z,218.80
2019-01-21T05:21:00.073Z,218.72
2019-01-21T05:22:00.220Z,218.66
2019-01-21T05:23:00.366Z,218.63
2019-01-21T05:24:00.563Z,218.69
2019-01-21T05:25:00.754Z,218.63
2019-01-21T05:26:00.957Z,218.80
2019-01-21T05:27:01.013Z,218.68
2019-01-21T05:28:01.182Z,218.76
2019-01-21T05:29:01.378Z,218.68
2019-01-21T05:30:01.562Z,218.68
2019-01-21T05:31:01.705Z,218.67
2019-01-21T05:32:01.844Z,218.73
2019-01-21T05:33:01.997Z,218.71
2019-01-21T05:34:02.376Z,218.78
2019-01-21T05:35:02.354Z,218.75
2019-01-21T05:36:02.514Z,218.77
2019-01-21T05:37:02.657Z,218.67
2019-01-21T05:38:02.800Z,218.68
2019-01-21T05:39:02.996Z,218.65
2019-01-21T05:40:03.146Z,218.65
2019-01-21T05:41:03.329Z,218.76
2019-01-21T05:42:03.512Z,218.80
2019-01-21T05:43:03.603Z,218.73
2019-01-21T05:44:03.777Z,218.71
2019-01-21T05:45:03.933Z,218.73
2019-01-21T05:46:04.118Z,218.72
2019-01-21T05:47:04.255Z,218.78
2019-01-21T05:48:04.410Z,218.76
2019-01-21T05:49:04.594Z,218.75
2019-01-21T05:50:04.783Z,218.68
2019-01-21T05:51:04.899Z,218.73
2019-01-21T05:52:05.043Z,218.67
2019-01-21T05:53:05.202Z,218.78
2019-01-21T05:54:05.388Z,218.72
2019-01-21T05:55:05.510Z,218.78
2019-01-21T05:56:05.686Z,218.84
2019-01-21T05:57:05.871Z,218.80
2019-01-21T05:58:06.070Z,218.92
2019-01-21T05:59:06.275Z,218.89
2019-01-21T06:00:06.343Z,218.95
2019-01-21T06:01:06.517Z,218.94
2019-01-21T06:02:06.700Z,218.94
2019-01-21T06:03:06.837Z,218.94
2019-01-21T06:04:07.020Z,218.96
2019-01-21T06:05:07.166Z,218.96
2019-01-21T06:06:07.342Z,218.98
2019-01-21T06:07:07.657Z,218.98
2019-01-21T06:08:07.668Z,219.04
2019-01-21T06:09:07.835Z,219.01
2019-01-21T06:10:07.982Z,271.20
2019-01-21T06:11:08.126Z,269.56
2019-01-21T06:12:08.352Z,270.61
2019-01-21T06:13:08.542Z,269.94
2019-01-21T06:14:08.658Z,269.93
2019-01-21T06:15:08.881Z,268.91
2019-01-21T06:16:08.936Z,268.84
2019-01-21T06:17:09.162Z,268.84
2019-01-21T06:18:09.306Z,269.38
2019-01-21T06:19:09.589Z,269.79
2019-01-21T06:20:09.622Z,218.84
2019-01-21T06:21:09.776Z,269.15
2019-01-21T06:22:10.001Z,270.63
2019-01-21T06:23:10.144Z,269.24
2019-01-21T06:24:10.264Z,269.78
2019-01-21T06:25:10.417Z,269.29
2019-01-21T06:26:10.578Z,269.86
2019-01-21T06:27:10.781Z,269.74
2019-01-21T06:28:10.880Z,270.22
2019-01-21T06:29:11.058Z,270.41
2019-01-21T06:30:11.217Z,269.89
2019-01-21T06:31:11.427Z,270.19
2019-01-21T06:32:11.602Z,269.37
2019-01-21T06:33:11.714Z,269.58
2019-01-21T06:34:11.871Z,270.26
2019-01-21T06:35:12.037Z,270.31
2019-01-21T06:36:12.205Z,273.63
2019-01-21T06:37:12.389Z,269.86
2019-01-21T06:38:12.523Z,269.99
2019-01-21T06:39:12.770Z,267.95
2019-01-21T06:40:12.952Z,270.52
2019-01-21T06:41:13.004Z,269.57
2019-01-21T06:42:13.181Z,268.96
2019-01-21T06:43:13.326Z,269.33
2019-01-21T06:44:13.506Z,269.42
2019-01-21T06:45:13.652Z,268.98
2019-01-21T06:46:13.812Z,269.12
2019-01-21T06:47:13.982Z,270.48
2019-01-21T06:48:14.287Z,268.37
2019-01-21T06:49:14.316Z,218.73
2019-01-21T06:50:14.464Z,270.31
2019-01-21T06:51:14.869Z,218.77
2019-01-21T06:52:14.819Z,218.71
2019-01-21T06:53:14.973Z,218.78
2019-01-21T06:54:15.125Z,269.77
2019-01-21T06:55:15.288Z,270.87
2019-01-21T06:56:15.495Z,270.81
2019-01-21T06:57:15.600Z,269.86
2019-01-21T06:58:15.788Z,268.54
2019-01-21T06:59:15.916Z,270.96
2019-01-21T07:00:16.100Z,269.92
2019-01-21T07:01:16.261Z,269.66
2019-01-21T07:02:16.431Z,270.03
2019-01-21T07:03:16.615Z,269.46
2019-01-21T07:04:16.811Z,270.55
2019-01-21T07:05:16.925Z,218.90
2019-01-21T07:06:17.069Z,268.42
2019-01-21T07:07:17.233Z,269.81
2019-01-21T07:08:17.383Z,269.02
2019-01-21T07:09:17.564Z,269.81
2019-01-21T07:10:17.759Z,269.23
2019-01-21T07:11:17.887Z,269.46
2019-01-21T07:12:18.112Z,268.59
2019-01-21T07:13:18.245Z,269.72
2019-01-21T07:14:18.371Z,269.25
2019-01-21T07:15:18.576Z,269.74
2019-01-21T07:16:18.693Z,268.40
2019-01-21T07:17:18.873Z,269.33
2019-01-21T07:18:19.657Z,270.12
2019-01-21T07:19:19.164Z,268.96
2019-01-21T07:20:19.386Z,269.31
2019-01-21T07:21:19.634Z,218.67
2019-01-21T07:22:19.679Z,269.40
2019-01-21T07:23:19.808Z,268.88
2019-01-21T07:24:19.979Z,270.61
2019-01-21T07:25:20.197Z,268.95
2019-01-21T07:26:20.317Z,268.90
2019-01-21T07:27:20.502Z,268.53
2019-01-21T07:28:20.652Z,269.85
2019-01-21T07:29:20.878Z,269.79
2019-01-21T07:30:20.991Z,269.15
2019-01-21T07:31:21.118Z,268.57
2019-01-21T07:32:21.303Z,267.83
2019-01-21T07:33:21.441Z,268.63
2019-01-21T07:34:21.594Z,268.49
2019-01-21T07:35:21.796Z,269.06
2019-01-21T07:36:21.945Z,268.75
2019-01-21T07:37:22.188Z,218.61
2019-01-21T07:38:22.250Z,269.44
2019-01-21T07:39:22.420Z,268.53
2019-01-21T07:40:22.586Z,269.99
2019-01-21T07:41:22.744Z,269.51
2019-01-21T07:42:22.936Z,270.16
2019-01-21T07:43:23.079Z,269.05
2019-01-21T07:44:23.241Z,270.24
2019-01-21T07:45:23.495Z,269.99
2019-01-21T07:46:23.541Z,269.86
2019-01-21T07:47:23.750Z,218.65
2019-01-21T07:48:23.895Z,267.81
2019-01-21T07:49:24.058Z,270.10
2019-01-21T07:50:24.794Z,268.98
2019-01-21T07:51:24.378Z,268.68
2019-01-21T07:52:25.322Z,268.80
2019-01-21T07:53:25.318Z,269.91
2019-01-21T07:54:25.013Z,269.21
2019-01-21T07:55:25.122Z,270.57
2019-01-21T07:56:25.398Z,269.17
2019-01-21T07:57:25.352Z,270.16
2019-01-21T07:58:25.531Z,268.46
2019-01-21T07:59:25.688Z,268.19
2019-01-21T08:00:25.894Z,269.32
2019-01-21T08:01:26.025Z,269.77
2019-01-21T08:02:26.254Z,269.72
2019-01-21T08:03:26.356Z,269.25
2019-01-21T08:04:26.513Z,269.54
2019-01-21T08:05:26.712Z,268.74
2019-01-21T08:06:26.853Z,269.02
2019-01-21T08:07:26.986Z,268.30
2019-01-21T08:08:27.164Z,269.32
2019-01-21T08:09:27.334Z,270.14
2019-01-21T08:10:27.611Z,270.04
2019-01-21T08:11:27.664Z,269.54
2019-01-21T08:12:27.815Z,269.09
2019-01-21T08:13:27.977Z,269.18
2019-01-21T08:14:28.138Z,269.97
2019-01-21T08:15:28.332Z,268.02
2019-01-21T08:16:28.506Z,268.75
2019-01-21T08:17:28.638Z,269.87
2019-01-21T08:18:28.853Z,269.57
2019-01-21T08:19:28.928Z,269.52
2019-01-21T08:20:29.128Z,268.53
2019-01-21T08:21:29.284Z,270.06
2019-01-21T08:22:29.430Z,268.19
2019-01-21T08:23:30.352Z,269.55
2019-01-21T08:24:29.772Z,269.59
2019-01-21T08:25:29.926Z,269.33
2019-01-21T08:26:30.135Z,269.31
2019-01-21T08:27:30.344Z,269.37
2019-01-21T08:28:30.477Z,269.04
2019-01-21T08:29:30.816Z,269.38
2019-01-21T08:30:30.764Z,268.82
2019-01-21T08:31:30.899Z,269.90
2019-01-21T08:32:31.099Z,268.86
2019-01-21T08:33:31.251Z,270.03
2019-01-21T08:34:31.403Z,270.62
2019-01-21T08:35:31.655Z,269.07
2019-01-21T08:36:31.721Z,269.32
2019-01-21T08:37:31.898Z,268.71
2019-01-21T08:38:32.073Z,269.88
2019-01-21T08:39:32.222Z,269.16
2019-01-21T08:40:32.392Z,269.45
2019-01-21T08:41:32.545Z,270.01
2019-01-21T08:42:32.698Z,269.29
2019-01-21T08:43:33.022Z,270.45
2019-01-21T08:44:33.020Z,268.87
2019-01-21T08:45:33.202Z,268.37
2019-01-21T08:46:33.360Z,269.21
2019-01-21T08:47:33.513Z,270.42
2019-01-21T08:48:33.693Z,269.56
2019-01-21T08:49:33.829Z,269.38
2019-01-21T08:50:34.017Z,269.15
2019-01-21T08:51:35.622Z,269.56
2019-01-21T08:52:34.286Z,269.80
2019-01-21T08:53:34.488Z,269.51
2019-01-21T08:54:34.631Z,268.96
2019-01-21T08:55:34.829Z,269.22
2019-01-21T08:56:34.977Z,268.38
2019-01-21T08:57:35.115Z,267.88
2019-01-21T08:58:35.275Z,268.52
2019-01-21T08:59:35.513Z,268.27
2019-01-21T09:00:35.612Z,268.35
2019-01-21T09:01:35.771Z,268.80
2019-01-21T09:02:35.926Z,269.94
2019-01-21T09:03:36.140Z,269.65
2019-01-21T09:04:36.233Z,268.56
2019-01-21T09:05:36.412Z,269.41
2019-01-21T09:06:36.572Z,269.17
2019-01-21T09:07:36.761Z,268.65
2019-01-21T09:08:37.694Z,268.04
2019-01-21T09:09:37.043Z,270.33
2019-01-21T09:10:37.296Z,269.31
2019-01-21T09:11:37.433Z,268.30
2019-01-21T09:12:37.553Z,269.92
2019-01-21T09:13:37.755Z,268.49
2019-01-21T09:14:37.885Z,268.19
2019-01-21T09:15:38.033Z,270.33
2019-01-21T09:16:38.343Z,268.59
2019-01-21T09:17:38.360Z,268.49
2019-01-21T09:18:38.547Z,270.19
2019-01-21T09:19:38.676Z,270.21
2019-01-21T09:20:38.849Z,269.64
2019-01-21T09:21:39.079Z,268.80
2019-01-21T09:22:39.186Z,269.09
2019-01-21T09:23:39.366Z,270.00
2019-01-21T09:24:39.616Z,268.85
2019-01-21T09:25:39.642Z,267.65
2019-01-21T09:26:39.862Z,269.47
2019-01-21T09:27:40.010Z,268.24
2019-01-21T09:28:40.164Z,269.63
2019-01-21T09:29:40.308Z,270.16
2019-01-21T09:30:40.485Z,270.15
2019-01-21T09:31:40.638Z,268.82
2019-01-21T09:32:40.876Z,268.26
2019-01-21T09:33:40.974Z,268.58
2019-01-21T09:34:41.125Z,269.54
2019-01-21T09:35:41.287Z,268.90
2019-01-21T09:36:41.461Z,268.82
2019-01-21T09:37:41.614Z,268.83
2019-01-21T09:38:41.792Z,268.41
2019-01-21T09:39:41.955Z,268.88
2019-01-21T09:40:42.147Z,268.07
2019-01-21T09:41:43.506Z,268.54
2019-01-21T09:42:42.448Z,267.77
2019-01-21T09:43:42.623Z,268.53
2019-01-21T09:44:42.779Z,268.80
2019-01-21T09:45:42.940Z,268.10
2019-01-21T09:46:43.121Z,268.02
2019-01-21T09:47:43.284Z,269.06
2019-01-21T09:48:43.453Z,268.06
2019-01-21T09:49:43.971Z,268.70
2019-01-21T09:50:43.747Z,269.00
2019-01-21T09:51:43.929Z,217.98
2019-01-21T09:52:44.097Z,269.40
2019-01-21T09:53:44.237Z,217.97
2019-01-21T09:54:44.378Z,270.40
2019-01-21T09:55:44.918Z,218.04
2019-01-21T09:56:44.736Z,268.38
2019-01-21T09:57:45.035Z,268.90
2019-01-21T09:58:45.052Z,217.98
2019-01-21T09:59:45.222Z,218.00
2019-01-21T10:00:45.372Z,268.28
2019-01-21T10:01:45.557Z,267.85
2019-01-21T10:02:45.713Z,268.69
2019-01-21T10:03:45.879Z,267.61
2019-01-21T10:04:46.001Z,269.43
2019-01-21T10:05:46.265Z,269.24
2019-01-21T10:06:46.361Z,269.76
2019-01-21T10:07:46.761Z,268.85
2019-01-21T10:08:46.668Z,268.26
2019-01-21T10:09:46.830Z,270.10
2019-01-21T10:10:46.975Z,269.94
2019-01-21T10:11:47.154Z,269.97
2019-01-21T10:12:47.341Z,270.13
2019-01-21T10:13:47.510Z,270.07
2019-01-21T10:14:47.629Z,269.52
2019-01-21T10:15:47.796Z,269.35
2019-01-21T10:16:50.822Z,270.34
2019-01-21T10:17:48.122Z,270.59
2019-01-21T10:18:48.293Z,269.85
2019-01-21T10:19:50.716Z,269.61
2019-01-21T10:20:49.794Z,269.98
2019-01-21T10:21:48.839Z,270.68
2019-01-21T10:22:48.997Z,269.29
2019-01-21T10:23:49.109Z,269.58
2019-01-21T10:24:49.285Z,269.83
2019-01-21T10:25:49.447Z,268.83
2019-01-21T10:26:49.660Z,268.53
2019-01-21T10:27:49.770Z,268.25
2019-01-21T10:28:49.917Z,270.03
2019-01-21T10:29:50.124Z,268.14
2019-01-21T10:30:50.427Z,268.68
2019-01-21T10:31:50.490Z,269.40
2019-01-21T10:32:50.598Z,269.23
2019-01-21T10:33:50.764Z,268.36
2019-01-21T10:34:50.951Z,268.51
2019-01-21T10:35:51.093Z,268.06
2019-01-21T10:36:51.301Z,268.34
2019-01-21T10:37:52.836Z,268.99
2019-01-21T10:38:51.661Z,269.45
2019-01-21T10:39:51.757Z,268.09
2019-01-21T10:40:51.903Z,268.35
2019-01-21T10:41:52.082Z,267.92
2019-01-21T10:42:52.242Z,269.21
2019-01-21T10:43:52.386Z,268.91
2019-01-21T10:44:52.548Z,268.69
2019-01-21T10:45:52.711Z,269.08
2019-01-21T10:46:52.965Z,268.11
2019-01-21T10:47:53.055Z,268.45
2019-01-21T10:48:53.191Z,269.20
2019-01-21T10:49:57.264Z,268.62
2019-01-21T10:50:53.506Z,268.69
2019-01-21T10:51:53.702Z,269.70
2019-01-21T10:52:53.863Z,268.73
2019-01-21T10:53:54.004Z,269.43
2019-01-21T10:54:54.219Z,268.02
2019-01-21T10:55:54.292Z,268.34
2019-01-21T10:56:54.486Z,217.27
2019-01-21T10:57:54.669Z,268.58
2019-01-21T10:58:54.807Z,268.21
2019-01-21T10:59:54.983Z,267.33
2019-01-21T11:00:56.544Z,268.09
2019-01-21T11:01:55.309Z,267.65
2019-01-21T11:02:55.498Z,268.25
2019-01-21T11:03:55.710Z,268.29
2019-01-21T11:04:55.792Z,268.25
2019-01-21T11:05:55.938Z,269.11
2019-01-21T11:06:56.120Z,269.31
2019-01-21T11:07:56.272Z,268.25
2019-01-21T11:08:56.424Z,269.08
2019-01-21T11:09:56.599Z,268.73
2019-01-21T11:10:56.749Z,268.10
2019-01-21T11:11:57.117Z,267.07
2019-01-21T11:12:57.075Z,267.07
2019-01-21T11:13:57.227Z,267.63
2019-01-21T11:14:57.412Z,267.45
2019-01-21T11:15:57.564Z,267.88
2019-01-21T11:16:57.742Z,266.88
2019-01-21T11:17:57.915Z,269.07
2019-01-21T11:18:58.060Z,268.21
2019-01-21T11:20:03.777Z,268.42
2019-01-21T11:20:59.355Z,267.68
2019-01-21T11:21:58.537Z,267.71
2019-01-21T11:22:58.700Z,217.04
2019-01-21T11:23:58.855Z,268.16
2019-01-21T11:24:59.038Z,267.35
2019-01-21T11:25:59.193Z,268.36
2019-01-21T11:26:59.350Z,268.39
2019-01-21T11:27:59.542Z,268.73
2019-01-21T11:28:59.682Z,217.29
2019-01-21T11:29:59.823Z,268.37
2019-01-21T11:30:59.980Z,268.02
2019-01-21T11:32:00.156Z,268.16
2019-01-21T11:33:00.335Z,267.83
2019-01-21T11:34:01.395Z,267.46
2019-01-21T11:35:00.681Z,217.02
2019-01-21T11:36:00.856Z,267.28
2019-01-21T11:37:01.037Z,268.38
2019-01-21T11:38:01.162Z,268.69
2019-01-21T11:39:01.374Z,267.55
2019-01-21T11:40:01.492Z,267.93
2019-01-21T11:41:01.607Z,267.63
2019-01-21T11:42:01.787Z,267.73
2019-01-21T11:43:01.986Z,267.58
2019-01-21T11:44:02.171Z,267.53
2019-01-21T11:45:02.660Z,216.97
2019-01-21T11:46:02.438Z,267.58
2019-01-21T11:47:02.617Z,217.01
2019-01-21T11:48:02.814Z,268.06
2019-01-21T11:49:02.981Z,268.08
2019-01-21T11:50:03.126Z,268.68
2019-01-21T11:51:03.840Z,216.88
2019-01-21T11:52:03.412Z,267.90
2019-01-21T11:53:03.732Z,268.53
2019-01-21T11:54:03.771Z,268.24
2019-01-21T11:55:03.932Z,268.03
2019-01-21T11:56:04.077Z,267.86
2019-01-21T11:57:04.225Z,268.44
2019-01-21T11:58:04.417Z,267.90
2019-01-21T11:59:04.591Z,216.96
2019-01-21T12:00:04.765Z,268.72
2019-01-21T12:01:04.926Z,267.80
2019-01-21T12:02:05.045Z,267.08
2019-01-21T12:03:05.215Z,267.38
2019-01-21T12:04:05.374Z,268.68
2019-01-21T12:05:05.568Z,267.26
2019-01-21T12:06:05.699Z,267.10
2019-01-21T12:07:05.862Z,267.55
2019-01-21T12:08:06.050Z,268.39
2019-01-21T12:09:06.220Z,267.01
2019-01-21T12:10:06.375Z,267.01
2019-01-21T12:11:06.497Z,267.61
2019-01-21T12:12:06.657Z,268.36
2019-01-21T12:13:06.845Z,268.05
2019-01-21T12:14:06.978Z,267.55
2019-01-21T12:15:07.178Z,268.32
2019-01-21T12:16:07.530Z,266.92
2019-01-21T12:17:07.530Z,268.41
2019-01-21T12:18:07.770Z,267.64
2019-01-21T12:19:07.810Z,267.86
2019-01-21T12:20:07.960Z,268.60
2019-01-21T12:21:08.117Z,216.90
2019-01-21T12:22:08.279Z,217.01
2019-01-21T12:23:08.459Z,217.04
2019-01-21T12:24:08.640Z,217.06
2019-01-21T12:25:08.793Z,217.06
2019-01-21T12:26:09.028Z,217.09
2019-01-21T12:27:09.072Z,217.05
2019-01-21T12:28:09.246Z,217.04
2019-01-21T12:29:09.416Z,217.09
2019-01-21T12:30:09.568Z,217.04